sensor_id;sensor_type;location;lat;lon;timestamp;P1;durP1;ratioP1;P2;durP2;ratioP2
20251;SDS011;10284;58.364;15.550;2022-09-09T00:02:19;0.90;;;0.90;;
20251;SDS011;10284;58.364;15.550;2022-09-09T00:04:53;1.13;;;1.00;;
20251;SDS011;10284;58.364;15.550;2022-09-09T00:15:41;1.33;;;1.23;;
20251;SDS011;10284;58.364;15.550;2022-09-09T00:29:23;1.10;;;1.00;;
20251;SDS011;10284;58.364;15.550;2022-09-09T00:31:31;3.38;;;1.25;;
20251;SDS011;10284;58.364;15.550;2022-09-09T00:33:58;1.33;;;1.20;;
20251;SDS011;10284;58.364;15.550;2022-09-09T00:36:29;1.05;;;1.00;;
20251;SDS011;10284;58.364;15.550;2022-09-09T00:38:58;2.90;;;1.35;;
20251;SDS011;10284;58.364;15.550;2022-09-09T00:44:17;1.17;;;1.17;;
20251;SDS011;10284;58.364;15.550;2022-09-09T00:55:45;2.22;;;1.20;;
20251;SDS011;10284;58.364;15.550;2022-09-09T00:58:13;1.27;;;1.10;;
20251;SDS011;10284;58.364;15.550;2022-09-09T01:00:41;1.00;;;1.00;;
20251;SDS011;10284;58.364;15.550;2022-09-09T01:03:22;1.20;;;1.00;;
20251;SDS011;10284;58.364;15.550;2022-09-09T01:09:08;2.75;;;1.17;;
20251;SDS011;10284;58.364;15.550;2022-09-09T01:17:05;2.08;;;1.50;;
20251;SDS011;10284;58.364;15.550;2022-09-09T01:27:38;2.97;;;1.65;;
20251;SDS011;10284;58.364;15.550;2022-09-09T01:30:09;1.25;;;1.02;;
20251;SDS011;10284;58.364;15.550;2022-09-09T01:35:07;2.17;;;1.10;;
20251;SDS011;10284;58.364;15.550;2022-09-09T01:37:36;1.52;;;1.17;;
20251;SDS011;10284;58.364;15.550;2022-09-09T01:40:02;1.50;;;1.40;;
20251;SDS011;10284;58.364;15.550;2022-09-09T01:42:28;1.92;;;1.30;;
20251;SDS011;10284;58.364;15.550;2022-09-09T01:44:53;3.85;;;1.38;;
20251;SDS011;10284;58.364;15.550;2022-09-09T01:47:20;3.20;;;1.15;;
20251;SDS011;10284;58.364;15.550;2022-09-09T01:49:45;1.48;;;1.20;;
20251;SDS011;10284;58.364;15.550;2022-09-09T01:52:11;1.67;;;1.10;;
20251;SDS011;10284;58.364;15.550;2022-09-09T01:54:36;1.10;;;1.00;;
20251;SDS011;10284;58.364;15.550;2022-09-09T02:02:13;1.30;;;1.20;;
20251;SDS011;10284;58.364;15.550;2022-09-09T02:05:11;1.10;;;1.00;;
20251;SDS011;10284;58.364;15.550;2022-09-09T02:07:42;1.95;;;1.08;;
20251;SDS011;10284;58.364;15.550;2022-09-09T02:10:09;1.90;;;1.17;;
20251;SDS011;10284;58.364;15.550;2022-09-09T02:12:39;1.10;;;1.00;;
20251;SDS011;10284;58.364;15.550;2022-09-09T02:15:11;1.33;;;1.23;;
20251;SDS011;10284;58.364;15.550;2022-09-09T02:17:52;2.22;;;1.20;;
20251;SDS011;10284;58.364;15.550;2022-09-09T02:20:18;1.08;;;1.00;;
20251;SDS011;10284;58.364;15.550;2022-09-09T02:22:45;1.35;;;0.95;;
20251;SDS011;10284;58.364;15.550;2022-09-09T02:25:14;2.15;;;1.48;;
20251;SDS011;10284;58.364;15.550;2022-09-09T02:27:41;2.22;;;1.30;;
20251;SDS011;10284;58.364;15.550;2022-09-09T02:30:09;1.52;;;1.30;;
20251;SDS011;10284;58.364;15.550;2022-09-09T02:32:35;1.73;;;1.00;;
20251;SDS011;10284;58.364;15.550;2022-09-09T02:35:05;1.90;;;1.20;;
20251;SDS011;10284;58.364;15.550;2022-09-09T02:37:40;4.70;;;1.40;;
20251;SDS011;10284;58.364;15.550;2022-09-09T02:40:07;3.47;;;1.52;;
20251;SDS011;10284;58.364;15.550;2022-09-09T02:42:41;2.17;;;1.23;;
20251;SDS011;10284;58.364;15.550;2022-09-09T02:45:09;1.55;;;1.05;;
20251;SDS011;10284;58.364;15.550;2022-09-09T02:47:38;1.80;;;1.30;;
20251;SDS011;10284;58.364;15.550;2022-09-09T02:58:01;1.42;;;1.20;;
20251;SDS011;10284;58.364;15.550;2022-09-09T03:00:31;2.42;;;1.00;;
20251;SDS011;10284;58.364;15.550;2022-09-09T03:02:57;2.55;;;1.27;;
20251;SDS011;10284;58.364;15.550;2022-09-09T03:05:23;3.83;;;1.10;;
20251;SDS011;10284;58.364;15.550;2022-09-09T03:07:48;2.97;;;1.13;;
20251;SDS011;10284;58.364;15.550;2022-09-09T03:10:15;2.63;;;1.20;;
20251;SDS011;10284;58.364;15.550;2022-09-09T03:12:41;3.45;;;1.25;;
20251;SDS011;10284;58.364;15.550;2022-09-09T03:15:06;1.60;;;1.30;;
20251;SDS011;10284;58.364;15.550;2022-09-09T03:17:32;5.88;;;1.35;;
20251;SDS011;10284;58.364;15.550;2022-09-09T03:19:58;3.60;;;1.30;;
20251;SDS011;10284;58.364;15.550;2022-09-09T03:22:24;1.52;;;1.17;;
20251;SDS011;10284;58.364;15.550;2022-09-09T03:24:50;2.35;;;1.10;;
20251;SDS011;10284;58.364;15.550;2022-09-09T03:27:16;4.25;;;1.60;;
20251;SDS011;10284;58.364;15.550;2022-09-09T03:29:42;2.13;;;1.23;;
20251;SDS011;10284;58.364;15.550;2022-09-09T03:32:07;4.30;;;1.30;;
20251;SDS011;10284;58.364;15.550;2022-09-09T03:34:35;2.28;;;1.30;;
20251;SDS011;10284;58.364;15.550;2022-09-09T03:37:02;2.83;;;1.10;;
20251;SDS011;10284;58.364;15.550;2022-09-09T03:39:27;3.30;;;1.55;;
20251;SDS011;10284;58.364;15.550;2022-09-09T03:41:52;1.80;;;1.10;;
20251;SDS011;10284;58.364;15.550;2022-09-09T03:44:18;3.13;;;1.40;;
20251;SDS011;10284;58.364;15.550;2022-09-09T03:46:43;3.38;;;1.15;;
20251;SDS011;10284;58.364;15.550;2022-09-09T03:49:08;4.72;;;1.20;;
20251;SDS011;10284;58.364;15.550;2022-09-09T03:51:35;2.53;;;1.10;;
20251;SDS011;10284;58.364;15.550;2022-09-09T03:54:01;3.15;;;1.30;;
20251;SDS011;10284;58.364;15.550;2022-09-09T03:56:26;3.58;;;1.27;;
20251;SDS011;10284;58.364;15.550;2022-09-09T03:58:52;5.35;;;1.13;;
20251;SDS011;10284;58.364;15.550;2022-09-09T04:01:17;3.10;;;1.00;;
20251;SDS011;10284;58.364;15.550;2022-09-09T04:03:43;4.90;;;1.10;;
20251;SDS011;10284;58.364;15.550;2022-09-09T04:06:10;3.13;;;1.20;;
20251;SDS011;10284;58.364;15.550;2022-09-09T04:08:38;2.20;;;1.20;;
20251;SDS011;10284;58.364;15.550;2022-09-09T04:11:04;2.90;;;1.10;;
20251;SDS011;10284;58.364;15.550;2022-09-09T04:13:31;2.30;;;1.20;;
20251;SDS011;10284;58.364;15.550;2022-09-09T04:16:02;3.25;;;1.30;;
20251;SDS011;10284;58.364;15.550;2022-09-09T04:18:28;5.30;;;1.35;;
20251;SDS011;10284;58.364;15.550;2022-09-09T04:20:54;2.58;;;1.05;;
20251;SDS011;10284;58.364;15.550;2022-09-09T04:23:22;2.97;;;1.23;;
20251;SDS011;10284;58.364;15.550;2022-09-09T04:25:52;3.15;;;1.27;;
20251;SDS011;10284;58.364;15.550;2022-09-09T04:28:19;1.63;;;1.20;;
20251;SDS011;10284;58.364;15.550;2022-09-09T04:30:46;1.73;;;1.33;;
20251;SDS011;10284;58.364;15.550;2022-09-09T04:33:11;1.15;;;1.05;;
20251;SDS011;10284;58.364;15.550;2022-09-09T04:35:37;2.53;;;1.00;;
20251;SDS011;10284;58.364;15.550;2022-09-09T04:38:04;2.20;;;1.20;;
20251;SDS011;10284;58.364;15.550;2022-09-09T04:40:30;1.95;;;1.10;;
20251;SDS011;10284;58.364;15.550;2022-09-09T04:42:59;3.15;;;1.30;;
20251;SDS011;10284;58.364;15.550;2022-09-09T04:45:25;2.47;;;1.20;;
20251;SDS011;10284;58.364;15.550;2022-09-09T04:47:51;2.25;;;1.15;;
20251;SDS011;10284;58.364;15.550;2022-09-09T04:50:20;5.05;;;1.00;;
20251;SDS011;10284;58.364;15.550;2022-09-09T04:52:45;2.65;;;1.02;;
20251;SDS011;10284;58.364;15.550;2022-09-09T04:55:11;3.83;;;1.20;;
20251;SDS011;10284;58.364;15.550;2022-09-09T04:57:37;2.17;;;0.98;;
20251;SDS011;10284;58.364;15.550;2022-09-09T05:00:04;2.47;;;1.10;;
20251;SDS011;10284;58.364;15.550;2022-09-09T05:02:31;2.45;;;0.90;;
20251;SDS011;10284;58.364;15.550;2022-09-09T05:04:57;4.72;;;1.05;;
20251;SDS011;10284;58.364;15.550;2022-09-09T05:07:23;1.70;;;0.90;;
20251;SDS011;10284;58.364;15.550;2022-09-09T05:09:48;4.10;;;1.23;;
20251;SDS011;10284;58.364;15.550;2022-09-09T05:12:14;2.70;;;1.13;;
20251;SDS011;10284;58.364;15.550;2022-09-09T05:14:41;3.67;;;1.10;;
20251;SDS011;10284;58.364;15.550;2022-09-09T05:17:10;6.90;;;1.30;;
20251;SDS011;10284;58.364;15.550;2022-09-09T05:19:35;3.28;;;1.20;;
20251;SDS011;10284;58.364;15.550;2022-09-09T05:22:01;3.08;;;1.00;;
20251;SDS011;10284;58.364;15.550;2022-09-09T05:24:26;2.15;;;0.93;;
20251;SDS011;10284;58.364;15.550;2022-09-09T05:26:52;3.72;;;0.98;;
20251;SDS011;10284;58.364;15.550;2022-09-09T05:29:17;2.90;;;1.00;;
20251;SDS011;10284;58.364;15.550;2022-09-09T05:31:44;5.93;;;1.00;;
20251;SDS011;10284;58.364;15.550;2022-09-09T05:34:10;5.50;;;0.98;;
20251;SDS011;10284;58.364;15.550;2022-09-09T05:36:36;8.43;;;1.17;;
20251;SDS011;10284;58.364;15.550;2022-09-09T05:39:01;3.63;;;1.48;;
20251;SDS011;10284;58.364;15.550;2022-09-09T05:41:27;4.28;;;1.20;;
20251;SDS011;10284;58.364;15.550;2022-09-09T05:43:53;3.50;;;1.10;;
20251;SDS011;10284;58.364;15.550;2022-09-09T05:46:20;3.63;;;1.23;;
20251;SDS011;10284;58.364;15.550;2022-09-09T05:48:47;1.30;;;1.20;;
20251;SDS011;10284;58.364;15.550;2022-09-09T05:51:16;2.08;;;1.23;;
20251;SDS011;10284;58.364;15.550;2022-09-09T05:53:47;7.95;;;1.40;;
20251;SDS011;10284;58.364;15.550;2022-09-09T05:56:14;1.95;;;1.00;;
20251;SDS011;10284;58.364;15.550;2022-09-09T05:58:41;2.90;;;1.10;;
20251;SDS011;10284;58.364;15.550;2022-09-09T06:01:15;2.13;;;1.20;;
20251;SDS011;10284;58.364;15.550;2022-09-09T06:03:42;2.03;;;1.10;;
20251;SDS011;10284;58.364;15.550;2022-09-09T06:06:10;4.97;;;1.20;;
20251;SDS011;10284;58.364;15.550;2022-09-09T06:08:37;5.07;;;1.20;;
20251;SDS011;10284;58.364;15.550;2022-09-09T06:11:05;3.72;;;1.15;;
20251;SDS011;10284;58.364;15.550;2022-09-09T06:13:32;2.75;;;1.23;;
20251;SDS011;10284;58.364;15.550;2022-09-09T06:15:57;1.73;;;0.90;;
20251;SDS011;10284;58.364;15.550;2022-09-09T06:18:23;3.08;;;1.15;;
20251;SDS011;10284;58.364;15.550;2022-09-09T06:20:54;4.57;;;0.95;;
20251;SDS011;10284;58.364;15.550;2022-09-09T06:23:20;3.78;;;1.15;;
20251;SDS011;10284;58.364;15.550;2022-09-09T06:25:46;4.00;;;1.15;;
20251;SDS011;10284;58.364;15.550;2022-09-09T06:28:11;4.90;;;1.17;;
20251;SDS011;10284;58.364;15.550;2022-09-09T06:30:38;2.20;;;0.88;;
20251;SDS011;10284;58.364;15.550;2022-09-09T06:33:08;5.97;;;1.27;;
20251;SDS011;10284;58.364;15.550;2022-09-09T06:35:34;2.88;;;1.02;;
20251;SDS011;10284;58.364;15.550;2022-09-09T06:37:59;4.88;;;1.10;;
20251;SDS011;10284;58.364;15.550;2022-09-09T06:40:25;3.00;;;1.30;;
20251;SDS011;10284;58.364;15.550;2022-09-09T06:42:50;2.33;;;1.00;;
20251;SDS011;10284;58.364;15.550;2022-09-09T06:45:16;4.05;;;1.17;;
20251;SDS011;10284;58.364;15.550;2022-09-09T06:47:42;2.33;;;1.00;;
20251;SDS011;10284;58.364;15.550;2022-09-09T06:50:08;7.50;;;1.33;;
20251;SDS011;10284;58.364;15.550;2022-09-09T06:52:35;3.30;;;1.60;;
20251;SDS011;10284;58.364;15.550;2022-09-09T06:55:00;6.45;;;1.33;;
20251;SDS011;10284;58.364;15.550;2022-09-09T06:57:25;6.28;;;1.38;;
20251;SDS011;10284;58.364;15.550;2022-09-09T06:59:51;1.45;;;1.17;;
20251;SDS011;10284;58.364;15.550;2022-09-09T07:02:16;4.03;;;1.48;;
20251;SDS011;10284;58.364;15.550;2022-09-09T07:04:42;2.70;;;1.33;;
20251;SDS011;10284;58.364;15.550;2022-09-09T07:07:07;2.80;;;1.33;;
20251;SDS011;10284;58.364;15.550;2022-09-09T07:09:33;3.78;;;1.60;;
20251;SDS011;10284;58.364;15.550;2022-09-09T07:11:58;3.75;;;1.50;;
20251;SDS011;10284;58.364;15.550;2022-09-09T07:14:24;7.35;;;1.58;;
20251;SDS011;10284;58.364;15.550;2022-09-09T07:16:50;2.72;;;1.30;;
20251;SDS011;10284;58.364;15.550;2022-09-09T07:19:15;3.17;;;1.60;;
20251;SDS011;10284;58.364;15.550;2022-09-09T07:21:41;3.78;;;1.60;;
20251;SDS011;10284;58.364;15.550;2022-09-09T07:24:07;2.65;;;1.52;;
20251;SDS011;10284;58.364;15.550;2022-09-09T07:26:35;5.28;;;1.52;;
20251;SDS011;10284;58.364;15.550;2022-09-09T07:29:01;6.10;;;1.50;;
20251;SDS011;10284;58.364;15.550;2022-09-09T07:31:28;3.92;;;1.25;;
20251;SDS011;10284;58.364;15.550;2022-09-09T07:33:57;5.32;;;1.70;;
20251;SDS011;10284;58.364;15.550;2022-09-09T07:36:28;3.28;;;1.42;;
20251;SDS011;10284;58.364;15.550;2022-09-09T07:38:56;2.88;;;1.67;;
20251;SDS011;10284;58.364;15.550;2022-09-09T07:41:24;4.30;;;1.48;;
20251;SDS011;10284;58.364;15.550;2022-09-09T07:43:55;5.95;;;1.70;;
20251;SDS011;10284;58.364;15.550;2022-09-09T07:46:21;5.43;;;1.77;;
20251;SDS011;10284;58.364;15.550;2022-09-09T07:48:49;6.53;;;1.30;;
20251;SDS011;10284;58.364;15.550;2022-09-09T07:51:16;2.83;;;1.30;;
20251;SDS011;10284;58.364;15.550;2022-09-09T07:53:45;1.70;;;1.50;;
20251;SDS011;10284;58.364;15.550;2022-09-09T07:56:12;3.00;;;1.55;;
20251;SDS011;10284;58.364;15.550;2022-09-09T07:58:39;4.38;;;1.50;;
20251;SDS011;10284;58.364;15.550;2022-09-09T08:04:08;2.85;;;1.65;;
20251;SDS011;10284;58.364;15.550;2022-09-09T08:06:40;3.75;;;1.70;;
20251;SDS011;10284;58.364;15.550;2022-09-09T08:09:09;2.65;;;1.50;;
20251;SDS011;10284;58.364;15.550;2022-09-09T08:11:35;2.45;;;1.30;;
20251;SDS011;10284;58.364;15.550;2022-09-09T08:14:01;5.75;;;1.70;;
20251;SDS011;10284;58.364;15.550;2022-09-09T08:16:31;3.92;;;1.50;;
20251;SDS011;10284;58.364;15.550;2022-09-09T08:18:58;4.38;;;1.60;;
20251;SDS011;10284;58.364;15.550;2022-09-09T08:21:25;2.17;;;1.50;;
20251;SDS011;10284;58.364;15.550;2022-09-09T08:23:53;5.68;;;1.50;;
20251;SDS011;10284;58.364;15.550;2022-09-09T08:26:20;2.22;;;1.20;;
20251;SDS011;10284;58.364;15.550;2022-09-09T08:28:47;3.45;;;1.40;;
20251;SDS011;10284;58.364;15.550;2022-09-09T08:31:27;5.15;;;1.50;;
20251;SDS011;10284;58.364;15.550;2022-09-09T08:33:53;3.25;;;1.60;;
20251;SDS011;10284;58.364;15.550;2022-09-09T08:36:20;3.65;;;1.52;;
20251;SDS011;10284;58.364;15.550;2022-09-09T08:38:47;2.92;;;1.58;;
20251;SDS011;10284;58.364;15.550;2022-09-09T08:50:28;3.80;;;1.98;;
20251;SDS011;10284;58.364;15.550;2022-09-09T08:58:25;4.75;;;1.60;;
20251;SDS011;10284;58.364;15.550;2022-09-09T09:09:36;1.77;;;1.50;;
20251;SDS011;10284;58.364;15.550;2022-09-09T09:12:24;7.82;;;1.50;;
20251;SDS011;10284;58.364;15.550;2022-09-09T09:14:51;3.33;;;1.48;;
20251;SDS011;10284;58.364;15.550;2022-09-09T09:17:18;3.05;;;1.50;;
20251;SDS011;10284;58.364;15.550;2022-09-09T09:19:45;3.17;;;1.30;;
20251;SDS011;10284;58.364;15.550;2022-09-09T09:22:20;2.53;;;1.90;;
20251;SDS011;10284;58.364;15.550;2022-09-09T09:28:00;29.33;;;2.58;;
20251;SDS011;10284;58.364;15.550;2022-09-09T09:30:28;1.73;;;1.10;;
20251;SDS011;10284;58.364;15.550;2022-09-09T09:35:21;1.92;;;1.40;;
20251;SDS011;10284;58.364;15.550;2022-09-09T09:37:47;3.15;;;1.45;;
20251;SDS011;10284;58.364;15.550;2022-09-09T09:40:16;2.08;;;1.35;;
20251;SDS011;10284;58.364;15.550;2022-09-09T09:45:16;4.60;;;1.10;;
20251;SDS011;10284;58.364;15.550;2022-09-09T09:47:46;4.60;;;1.60;;
20251;SDS011;10284;58.364;15.550;2022-09-09T09:50:19;2.55;;;1.27;;
20251;SDS011;10284;58.364;15.550;2022-09-09T09:52:53;3.08;;;1.52;;
20251;SDS011;10284;58.364;15.550;2022-09-09T09:55:20;2.72;;;1.30;;
20251;SDS011;10284;58.364;15.550;2022-09-09T09:57:46;1.98;;;1.20;;
20251;SDS011;10284;58.364;15.550;2022-09-09T10:00:15;2.22;;;1.20;;
20251;SDS011;10284;58.364;15.550;2022-09-09T10:02:43;3.22;;;1.30;;
20251;SDS011;10284;58.364;15.550;2022-09-09T10:05:25;2.05;;;1.30;;
20251;SDS011;10284;58.364;15.550;2022-09-09T10:08:27;2.03;;;1.25;;
20251;SDS011;10284;58.364;15.550;2022-09-09T10:13:20;5.43;;;1.50;;
20251;SDS011;10284;58.364;15.550;2022-09-09T10:15:58;1.88;;;1.27;;
20251;SDS011;10284;58.364;15.550;2022-09-09T10:35:02;3.67;;;1.40;;
20251;SDS011;10284;58.364;15.550;2022-09-09T10:43:03;3.28;;;1.50;;
20251;SDS011;10284;58.364;15.550;2022-09-09T10:50:52;2.95;;;1.42;;
20251;SDS011;10284;58.364;15.550;2022-09-09T10:53:36;6.22;;;1.50;;
20251;SDS011;10284;58.364;15.550;2022-09-09T10:56:13;2.20;;;1.27;;
20251;SDS011;10284;58.364;15.550;2022-09-09T10:58:48;4.75;;;1.40;;
20251;SDS011;10284;58.364;15.550;2022-09-09T11:01:22;4.15;;;1.30;;
20251;SDS011;10284;58.364;15.550;2022-09-09T11:04:10;1.98;;;1.50;;
20251;SDS011;10284;58.364;15.550;2022-09-09T11:06:42;1.88;;;1.45;;
20251;SDS011;10284;58.364;15.550;2022-09-09T11:09:14;2.50;;;1.33;;
20251;SDS011;10284;58.364;15.550;2022-09-09T11:17:23;8.70;;;1.58;;
20251;SDS011;10284;58.364;15.550;2022-09-09T11:19:56;4.95;;;1.60;;
20251;SDS011;10284;58.364;15.550;2022-09-09T11:25:06;3.03;;;1.30;;
20251;SDS011;10284;58.364;15.550;2022-09-09T11:27:52;6.18;;;1.63;;
20251;SDS011;10284;58.364;15.550;2022-09-09T11:30:22;3.50;;;1.52;;
20251;SDS011;10284;58.364;15.550;2022-09-09T11:41:17;2.97;;;1.48;;
20251;SDS011;10284;58.364;15.550;2022-09-09T11:43:46;2.90;;;1.25;;
20251;SDS011;10284;58.364;15.550;2022-09-09T11:46:14;4.75;;;1.63;;
20251;SDS011;10284;58.364;15.550;2022-09-09T11:48:42;2.78;;;1.45;;
20251;SDS011;10284;58.364;15.550;2022-09-09T11:53:49;3.80;;;1.50;;
20251;SDS011;10284;58.364;15.550;2022-09-09T11:59:20;7.07;;;1.63;;
20251;SDS011;10284;58.364;15.550;2022-09-09T12:01:53;2.30;;;1.33;;
20251;SDS011;10284;58.364;15.550;2022-09-09T12:19:39;3.55;;;1.40;;
20251;SDS011;10284;58.364;15.550;2022-09-09T12:28:05;3.95;;;1.50;;
20251;SDS011;10284;58.364;15.550;2022-09-09T12:31:20;8.27;;;1.77;;
20251;SDS011;10284;58.364;15.550;2022-09-09T12:33:45;5.45;;;1.75;;
20251;SDS011;10284;58.364;15.550;2022-09-09T12:36:33;1.88;;;1.50;;
20251;SDS011;10284;58.364;15.550;2022-09-09T12:38:58;3.10;;;1.90;;
20251;SDS011;10284;58.364;15.550;2022-09-09T12:41:25;3.55;;;1.40;;
20251;SDS011;10284;58.364;15.550;2022-09-09T12:44:03;4.47;;;1.73;;
20251;SDS011;10284;58.364;15.550;2022-09-09T12:52:01;2.78;;;1.40;;
20251;SDS011;10284;58.364;15.550;2022-09-09T12:54:42;4.35;;;1.90;;
20251;SDS011;10284;58.364;15.550;2022-09-09T12:57:12;5.68;;;1.98;;
20251;SDS011;10284;58.364;15.550;2022-09-09T12:59:39;6.70;;;2.00;;
20251;SDS011;10284;58.364;15.550;2022-09-09T13:04:44;7.60;;;1.60;;
20251;SDS011;10284;58.364;15.550;2022-09-09T13:07:12;3.75;;;1.58;;
20251;SDS011;10284;58.364;15.550;2022-09-09T13:09:38;5.60;;;1.58;;
20251;SDS011;10284;58.364;15.550;2022-09-09T13:12:04;2.78;;;1.60;;
20251;SDS011;10284;58.364;15.550;2022-09-09T13:14:33;3.85;;;1.70;;
20251;SDS011;10284;58.364;15.550;2022-09-09T13:17:03;4.70;;;1.65;;
20251;SDS011;10284;58.364;15.550;2022-09-09T13:19:29;4.07;;;1.33;;
20251;SDS011;10284;58.364;15.550;2022-09-09T13:21:57;5.43;;;1.73;;
20251;SDS011;10284;58.364;15.550;2022-09-09T13:27:02;5.72;;;1.80;;
20251;SDS011;10284;58.364;15.550;2022-09-09T13:29:51;3.45;;;1.80;;
20251;SDS011;10284;58.364;15.550;2022-09-09T13:32:21;6.13;;;2.10;;
20251;SDS011;10284;58.364;15.550;2022-09-09T13:34:54;4.57;;;1.52;;
20251;SDS011;10284;58.364;15.550;2022-09-09T13:37:42;4.95;;;1.73;;
20251;SDS011;10284;58.364;15.550;2022-09-09T13:40:15;6.10;;;1.60;;
20251;SDS011;10284;58.364;15.550;2022-09-09T13:42:42;3.67;;;1.58;;
20251;SDS011;10284;58.364;15.550;2022-09-09T13:45:16;4.18;;;1.63;;
20251;SDS011;10284;58.364;15.550;2022-09-09T13:47:45;4.28;;;1.40;;
20251;SDS011;10284;58.364;15.550;2022-09-09T13:50:23;4.53;;;1.45;;
20251;SDS011;10284;58.364;15.550;2022-09-09T13:52:52;4.38;;;1.65;;
20251;SDS011;10284;58.364;15.550;2022-09-09T13:55:19;3.40;;;1.60;;
20251;SDS011;10284;58.364;15.550;2022-09-09T13:58:04;4.70;;;1.90;;
20251;SDS011;10284;58.364;15.550;2022-09-09T14:00:31;3.00;;;1.50;;
20251;SDS011;10284;58.364;15.550;2022-09-09T14:02:59;4.05;;;1.70;;
20251;SDS011;10284;58.364;15.550;2022-09-09T14:05:27;6.10;;;1.80;;
20251;SDS011;10284;58.364;15.550;2022-09-09T14:07:54;3.80;;;1.58;;
20251;SDS011;10284;58.364;15.550;2022-09-09T14:10:19;4.03;;;1.58;;
20251;SDS011;10284;58.364;15.550;2022-09-09T14:12:45;4.43;;;1.98;;
20251;SDS011;10284;58.364;15.550;2022-09-09T14:15:12;3.97;;;1.85;;
20251;SDS011;10284;58.364;15.550;2022-09-09T14:17:37;4.95;;;1.80;;
20251;SDS011;10284;58.364;15.550;2022-09-09T14:20:04;5.82;;;1.88;;
20251;SDS011;10284;58.364;15.550;2022-09-09T14:22:33;3.88;;;1.55;;
20251;SDS011;10284;58.364;15.550;2022-09-09T14:24:59;4.50;;;1.60;;
20251;SDS011;10284;58.364;15.550;2022-09-09T14:27:24;5.93;;;1.80;;
20251;SDS011;10284;58.364;15.550;2022-09-09T14:29:53;4.03;;;2.00;;
20251;SDS011;10284;58.364;15.550;2022-09-09T14:32:19;7.15;;;1.55;;
20251;SDS011;10284;58.364;15.550;2022-09-09T14:34:45;5.28;;;1.90;;
20251;SDS011;10284;58.364;15.550;2022-09-09T14:37:10;5.38;;;2.00;;
20251;SDS011;10284;58.364;15.550;2022-09-09T14:39:36;3.33;;;1.90;;
20251;SDS011;10284;58.364;15.550;2022-09-09T14:42:01;2.45;;;1.77;;
20251;SDS011;10284;58.364;15.550;2022-09-09T14:44:27;5.50;;;1.73;;
20251;SDS011;10284;58.364;15.550;2022-09-09T14:46:53;4.65;;;1.75;;
20251;SDS011;10284;58.364;15.550;2022-09-09T14:49:19;4.43;;;1.80;;
20251;SDS011;10284;58.364;15.550;2022-09-09T14:51:44;5.30;;;1.90;;
20251;SDS011;10284;58.364;15.550;2022-09-09T14:54:10;3.80;;;2.05;;
20251;SDS011;10284;58.364;15.550;2022-09-09T14:56:36;4.72;;;1.60;;
20251;SDS011;10284;58.364;15.550;2022-09-09T14:59:02;3.17;;;1.70;;
20251;SDS011;10284;58.364;15.550;2022-09-09T15:01:27;4.50;;;1.70;;
20251;SDS011;10284;58.364;15.550;2022-09-09T15:03:55;3.97;;;2.00;;
20251;SDS011;10284;58.364;15.550;2022-09-09T15:06:22;5.28;;;1.52;;
20251;SDS011;10284;58.364;15.550;2022-09-09T15:08:49;5.78;;;1.80;;
20251;SDS011;10284;58.364;15.550;2022-09-09T15:11:15;3.85;;;1.90;;
20251;SDS011;10284;58.364;15.550;2022-09-09T15:13:41;4.93;;;1.70;;
20251;SDS011;10284;58.364;15.550;2022-09-09T15:16:08;4.95;;;1.88;;
20251;SDS011;10284;58.364;15.550;2022-09-09T15:18:38;6.35;;;1.70;;
20251;SDS011;10284;58.364;15.550;2022-09-09T15:21:13;5.57;;;1.83;;
20251;SDS011;10284;58.364;15.550;2022-09-09T15:23:46;6.70;;;1.98;;
20251;SDS011;10284;58.364;15.550;2022-09-09T15:26:12;3.80;;;1.60;;
20251;SDS011;10284;58.364;15.550;2022-09-09T15:28:40;2.83;;;1.50;;
20251;SDS011;10284;58.364;15.550;2022-09-09T15:31:09;3.58;;;1.90;;
20251;SDS011;10284;58.364;15.550;2022-09-09T15:33:36;6.10;;;1.73;;
20251;SDS011;10284;58.364;15.550;2022-09-09T15:41:24;5.75;;;1.95;;
20251;SDS011;10284;58.364;15.550;2022-09-09T15:43:51;5.65;;;1.67;;
20251;SDS011;10284;58.364;15.550;2022-09-09T15:48:58;2.72;;;1.50;;
20251;SDS011;10284;58.364;15.550;2022-09-09T15:51:44;3.70;;;1.80;;
20251;SDS011;10284;58.364;15.550;2022-09-09T15:54:12;4.43;;;1.95;;
20251;SDS011;10284;58.364;15.550;2022-09-09T15:56:42;4.15;;;1.80;;
20251;SDS011;10284;58.364;15.550;2022-09-09T15:59:09;4.15;;;2.00;;
20251;SDS011;10284;58.364;15.550;2022-09-09T16:01:34;3.17;;;1.90;;
20251;SDS011;10284;58.364;15.550;2022-09-09T16:04:00;8.07;;;2.20;;
20251;SDS011;10284;58.364;15.550;2022-09-09T16:06:26;3.25;;;1.90;;
20251;SDS011;10284;58.364;15.550;2022-09-09T16:08:53;6.95;;;1.88;;
20251;SDS011;10284;58.364;15.550;2022-09-09T16:11:30;2.90;;;1.95;;
20251;SDS011;10284;58.364;15.550;2022-09-09T16:13:57;8.13;;;2.35;;
20251;SDS011;10284;58.364;15.550;2022-09-09T16:16:24;4.30;;;1.90;;
20251;SDS011;10284;58.364;15.550;2022-09-09T16:18:52;2.42;;;1.73;;
20251;SDS011;10284;58.364;15.550;2022-09-09T16:21:23;3.25;;;1.95;;
20251;SDS011;10284;58.364;15.550;2022-09-09T16:23:51;5.85;;;2.10;;
20251;SDS011;10284;58.364;15.550;2022-09-09T16:26:18;4.72;;;2.25;;
20251;SDS011;10284;58.364;15.550;2022-09-09T16:28:44;5.55;;;2.05;;
20251;SDS011;10284;58.364;15.550;2022-09-09T16:31:13;4.10;;;1.80;;
20251;SDS011;10284;58.364;15.550;2022-09-09T16:33:40;3.63;;;2.20;;
20251;SDS011;10284;58.364;15.550;2022-09-09T16:36:07;6.22;;;2.28;;
20251;SDS011;10284;58.364;15.550;2022-09-09T16:38:33;5.80;;;2.08;;
20251;SDS011;10284;58.364;15.550;2022-09-09T16:40:59;9.13;;;2.30;;
20251;SDS011;10284;58.364;15.550;2022-09-09T16:43:25;6.35;;;1.80;;
20251;SDS011;10284;58.364;15.550;2022-09-09T16:45:50;4.85;;;2.03;;
20251;SDS011;10284;58.364;15.550;2022-09-09T16:48:16;7.75;;;2.30;;
20251;SDS011;10284;58.364;15.550;2022-09-09T16:50:41;6.00;;;2.03;;
20251;SDS011;10284;58.364;15.550;2022-09-09T16:53:07;5.32;;;2.20;;
20251;SDS011;10284;58.364;15.550;2022-09-09T16:55:37;5.70;;;2.00;;
20251;SDS011;10284;58.364;15.550;2022-09-09T16:58:06;7.55;;;2.03;;
20251;SDS011;10284;58.364;15.550;2022-09-09T17:00:33;5.03;;;2.30;;
20251;SDS011;10284;58.364;15.550;2022-09-09T17:02:59;7.75;;;2.10;;
20251;SDS011;10284;58.364;15.550;2022-09-09T17:05:24;5.30;;;2.10;;
20251;SDS011;10284;58.364;15.550;2022-09-09T17:07:50;4.40;;;1.85;;
20251;SDS011;10284;58.364;15.550;2022-09-09T17:10:16;6.43;;;2.25;;
20251;SDS011;10284;58.364;15.550;2022-09-09T17:12:41;8.38;;;2.28;;
20251;SDS011;10284;58.364;15.550;2022-09-09T17:15:07;3.78;;;2.42;;
20251;SDS011;10284;58.364;15.550;2022-09-09T17:17:33;4.60;;;2.20;;
20251;SDS011;10284;58.364;15.550;2022-09-09T17:20:00;5.68;;;2.15;;
20251;SDS011;10284;58.364;15.550;2022-09-09T17:22:27;6.38;;;2.08;;
20251;SDS011;10284;58.364;15.550;2022-09-09T17:24:53;6.97;;;2.33;;
20251;SDS011;10284;58.364;15.550;2022-09-09T17:27:19;3.92;;;2.10;;
20251;SDS011;10284;58.364;15.550;2022-09-09T17:29:45;5.50;;;2.30;;
20251;SDS011;10284;58.364;15.550;2022-09-09T17:32:10;4.57;;;2.30;;
20251;SDS011;10284;58.364;15.550;2022-09-09T17:34:36;7.82;;;2.97;;
20251;SDS011;10284;58.364;15.550;2022-09-09T17:37:02;6.57;;;3.13;;
20251;SDS011;10284;58.364;15.550;2022-09-09T17:39:29;6.18;;;2.90;;
20251;SDS011;10284;58.364;15.550;2022-09-09T17:41:54;6.28;;;3.00;;
20251;SDS011;10284;58.364;15.550;2022-09-09T17:44:20;8.80;;;3.15;;
20251;SDS011;10284;58.364;15.550;2022-09-09T17:46:45;5.43;;;3.15;;
20251;SDS011;10284;58.364;15.550;2022-09-09T17:49:12;4.13;;;3.03;;
20251;SDS011;10284;58.364;15.550;2022-09-09T17:51:39;5.65;;;3.08;;